Accueil
METAR-TAF:

METAR-TAF

Aéroports :

Aéroport international de Bâle-Mulhouse-Fribourg

Bâle-Mulhouse, France

latitude: 47-36N, longitude: 007-31E, altitude: 270 m

Observation

Le bulletin a été fait il y a 31 minutes, à 08:00 UTC
Vent calme
Température 14°C
Humidité 67%
Pression 1014 hPa
Visibilité 10 km ou plus
pas de nuages en-dessous de 1500 mètres et pas de cumulonimbus.

METAR: LFSB 150800Z 00000KT CAVOK 14/08 Q1014 NOSIG

Heure: 10:31 (08:31 UTC)

Prévision

Le bulletin a été fait il y a 3 heures et 31 minutes, à 05:00 UTC
Prévision valable du 15 à 06 UTC au 16 à 06 UTC
Vent 6 kt de sud/sud-est
Visibilité 10 km ou plus
pas de nuages en-dessous de 1500 mètres et pas de cumulonimbus.

TAF: LFSB 150500Z 1506/1606 16006KT CAVOK

Observations et prévisions météorologiques de plus de 4000 aéroports (messages METAR et TAF).

Les stations disponibles sont représentées par des disques jaunes et rouges sur la carte.

Passer la souris dessus pour voir le nom de la station.

Cliquer dessus pour voir les observations et prévisions météorologiques.

Pour changer de carte: cliquez sur les boutons verts avec une croix noire pour zoomer, sur le bouton vert avec un tiret pour effectuer un zoom arrière, ou sur les flèches vertes pour les cartes adjacentes.


METAR-TAF: